Adak, AK

2:14 PM HDT on July 25, 2016 (GMT -0900)
Adak | | Change Station

Elev 13 ft 51.88 °N, 176.65 °W | Updated 18 minutes ago

Overcast
Overcast
54 °F
Feels Like 54 °F
N
5
Wind Variable Wind from SSE

Today
High -- | Low -- °F
--% Chance of Precip.
Yesterday
High -- | Low -- °F
Precip. -- in
Pressure 30.00 in
Visibility 10.0 miles
Clouds Overcast 1200 ft
Dew Point 43 °F
Humidity 67%
Rainfall 0.00 in
Snow Depth Not available.
6:59 AM 10:45 PM
Waning Gibbous, 61% visible
METAR PADK 252256Z AUTO 16004KT 10SM OVC012 12/06 A3000 RMK AO1
Pressure 30.00 in
Visibility 10.0 miles
Clouds Overcast 1200 ft
Dew Point 43 °F
Humidity 67%
Rainfall 0.00 in
Snow Depth Not available.
6:59 AM 10:45 PM
Waning Gibbous, 61% visible
METAR PADK 252256Z AUTO 16004KT 10SM OVC012 12/06 A3000 RMK AO1

10-Day Weather Forecast

Almanac

Astronomy

Jul. 25, 2016 Rise Set
Actual Time
Civil Twilight
Nautical Twilight
Astronomical Twilight
Moon
Length of Visible Light
Length of Day
Tomorrow will be .
, % of the Moon is Illuminated

Today's Extremes

State Highs State Lows

Community

WunderPhotos

Upload Photos

1,927,441 photos uploaded!

WunderBlog® & News

Nearby

Air Quality

  Air Quality AQ Index Pollutant
Not available.

Snow Depth

Station Depth Elevation

Earthquake Activity

City Distance Mag. Time & Date
Minimum magnitude displayed is 2.5.

Coastal Water Temperatures

Place Temperature

Stations

Nearby Weather Stations

Station Location Temp. Windchill Dew Point Humidity Wind Precip. Elev Updated Type
                   

Watches & Warnings

There are currently no watches in effect.